createdAt,value
2022-08-30T00:01:34.359Z,15.37
2022-08-30T00:04:02.607Z,15.37
2022-08-30T00:06:30.387Z,15.36
2022-08-30T00:08:59.657Z,15.35
2022-08-30T00:11:28.273Z,15.35
2022-08-30T00:13:57.914Z,15.31
2022-08-30T00:16:26.589Z,15.26
2022-08-30T00:18:55.110Z,15.24
2022-08-30T00:21:24.376Z,15.22
2022-08-30T00:23:52.593Z,15.21
2022-08-30T00:26:20.254Z,15.19
2022-08-30T00:28:47.839Z,15.17
2022-08-30T00:31:15.790Z,15.15
2022-08-30T00:33:43.779Z,15.13
2022-08-30T00:36:11.514Z,15.11
2022-08-30T00:38:39.171Z,15.06
2022-08-30T00:41:07.168Z,15.05
2022-08-30T00:43:36.656Z,15.04
2022-08-30T00:46:08.520Z,15.04
2022-08-30T00:48:41.149Z,15.05
2022-08-30T00:51:12.640Z,15.07
2022-08-30T00:53:44.161Z,15.09
2022-08-30T00:56:12.409Z,15.12
2022-08-30T00:58:45.357Z,15.13
2022-08-30T01:01:13.824Z,15.10
2022-08-30T01:03:43.416Z,15.08
2022-08-30T01:06:12.415Z,15.05
2022-08-30T01:08:40.227Z,15.05
2022-08-30T01:11:08.904Z,15.09
2022-08-30T01:13:36.557Z,15.11
2022-08-30T01:16:05.152Z,15.10
2022-08-30T01:18:32.906Z,15.06
2022-08-30T01:21:14.160Z,15.01
2022-08-30T01:23:44.589Z,14.99
2022-08-30T01:26:14.505Z,14.96
2022-08-30T01:28:48.102Z,14.94
2022-08-30T01:31:16.118Z,14.97
2022-08-30T01:33:43.897Z,14.95
2022-08-30T01:36:13.685Z,14.92
2022-08-30T01:38:50.744Z,14.90
2022-08-30T01:41:25.387Z,14.85
2022-08-30T01:43:56.071Z,14.81
2022-08-30T01:46:26.573Z,14.77
2022-08-30T01:48:56.649Z,14.75
2022-08-30T01:51:27.390Z,14.75
2022-08-30T01:53:56.285Z,14.75
2022-08-30T01:56:25.701Z,14.75
2022-08-30T01:58:57.258Z,14.76
2022-08-30T02:01:29.483Z,14.76
2022-08-30T02:04:00.599Z,14.75
2022-08-30T02:06:28.717Z,14.75
2022-08-30T02:08:56.550Z,14.74
2022-08-30T02:11:24.302Z,14.71
2022-08-30T02:13:52.057Z,14.72
2022-08-30T02:16:22.958Z,14.74
2022-08-30T02:18:53.102Z,14.76
2022-08-30T02:21:21.174Z,14.81
2022-08-30T02:23:49.375Z,14.88
2022-08-30T02:26:17.592Z,14.94
2022-08-30T02:28:50.321Z,14.98
2022-08-30T02:31:20.788Z,15.01
2022-08-30T02:33:51.543Z,15.03
2022-08-30T02:36:20.878Z,15.03
2022-08-30T02:38:50.496Z,15.02
2022-08-30T02:41:19.286Z,15.01
2022-08-30T02:43:47.154Z,15.03
2022-08-30T02:46:15.405Z,15.05
2022-08-30T02:48:44.355Z,15.08
2022-08-30T02:51:13.845Z,15.10
2022-08-30T02:53:43.808Z,15.13
2022-08-30T02:56:13.595Z,15.14
2022-08-30T02:58:42.445Z,15.17
2022-08-30T03:01:13.751Z,15.21
2022-08-30T03:03:44.083Z,15.24
2022-08-30T03:06:12.179Z,15.23
2022-08-30T03:08:40.543Z,15.22
2022-08-30T03:11:08.624Z,15.21
2022-08-30T03:13:36.505Z,15.26
2022-08-30T03:16:04.469Z,15.27
2022-08-30T03:18:33.478Z,15.30
2022-08-30T03:21:01.171Z,15.30
2022-08-30T03:23:28.793Z,15.31
2022-08-30T03:25:57.387Z,15.33
2022-08-30T03:28:25.019Z,15.33
2022-08-30T03:30:52.775Z,15.31
2022-08-30T03:33:20.428Z,15.28
2022-08-30T03:35:49.686Z,15.28
2022-08-30T03:38:17.382Z,15.30
2022-08-30T03:40:45.113Z,15.30
2022-08-30T03:43:12.987Z,15.30
2022-08-30T03:45:41.239Z,15.30
2022-08-30T03:48:09.009Z,15.31
2022-08-30T03:50:36.859Z,15.32
2022-08-30T03:53:04.599Z,15.34
2022-08-30T03:55:32.242Z,15.34
2022-08-30T03:57:59.888Z,15.35
2022-08-30T04:00:28.011Z,15.36
2022-08-30T04:02:55.640Z,15.34
2022-08-30T04:05:23.237Z,15.33
2022-08-30T04:07:50.971Z,15.32
2022-08-30T04:10:21.126Z,15.31
2022-08-30T04:12:50.543Z,15.33
2022-08-30T04:15:19.749Z,15.31
2022-08-30T04:17:47.424Z,15.31
2022-08-30T04:20:15.483Z,15.36
2022-08-30T04:22:43.227Z,15.49
2022-08-30T04:25:15.393Z,15.59
2022-08-30T04:27:45.527Z,15.63
2022-08-30T04:30:15.315Z,15.61
2022-08-30T04:32:43.670Z,15.61
2022-08-30T04:35:13.147Z,15.61
2022-08-30T04:37:41.165Z,15.61
2022-08-30T04:40:09.789Z,15.64
2022-08-30T04:42:37.869Z,15.66
2022-08-30T04:45:09.474Z,15.69
2022-08-30T04:47:39.038Z,15.68
2022-08-30T04:50:08.555Z,15.69
2022-08-30T04:52:36.172Z,15.68
2022-08-30T04:55:04.853Z,15.68
2022-08-30T04:57:32.825Z,15.69
2022-08-30T05:00:00.884Z,15.69
2022-08-30T05:02:28.753Z,15.69
2022-08-30T05:05:11.407Z,15.70
2022-08-30T05:07:41.959Z,15.72
2022-08-30T05:10:11.453Z,15.79
2022-08-30T05:12:40.422Z,15.87
2022-08-30T05:15:09.095Z,15.90
2022-08-30T05:17:40.881Z,15.93
2022-08-30T05:20:11.123Z,15.96
2022-08-30T05:22:49.809Z,15.96
2022-08-30T05:25:24.981Z,15.99
2022-08-30T05:27:53.175Z,16.02
2022-08-30T05:30:22.328Z,16.03
2022-08-30T05:32:50.898Z,16.07
2022-08-30T05:35:24.939Z,16.12
2022-08-30T05:37:54.122Z,16.12
2022-08-30T05:40:22.453Z,16.13
2022-08-30T05:42:50.708Z,16.18
2022-08-30T05:45:19.538Z,16.25
2022-08-30T05:47:47.751Z,16.31
2022-08-30T05:50:15.482Z,16.40
2022-08-30T05:52:44.880Z,16.47
2022-08-30T05:55:13.358Z,16.51
2022-08-30T05:57:41.773Z,16.54
2022-08-30T06:00:14.081Z,16.55
2022-08-30T06:02:42.417Z,16.59
2022-08-30T06:05:14.335Z,16.66
2022-08-30T06:07:43.431Z,16.71
2022-08-30T06:10:12.322Z,16.73
2022-08-30T06:12:40.634Z,16.78
2022-08-30T06:15:08.950Z,16.85
2022-08-30T06:17:39.566Z,16.89
2022-08-30T06:20:08.963Z,16.90
2022-08-30T06:22:38.570Z,16.91
2022-08-30T06:25:07.142Z,16.89
2022-08-30T06:27:34.833Z,16.84
2022-08-30T06:30:03.025Z,16.84
2022-08-30T06:32:30.667Z,16.89
2022-08-30T06:34:58.476Z,16.91
2022-08-30T06:37:30.025Z,16.97
2022-08-30T06:39:59.340Z,16.93
2022-08-30T06:42:31.986Z,16.95
2022-08-30T06:45:02.300Z,16.99
2022-08-30T06:47:30.752Z,17.00
2022-08-30T06:49:58.842Z,17.02
2022-08-30T06:52:26.675Z,17.05
2022-08-30T06:54:58.159Z,17.12
2022-08-30T06:57:26.695Z,17.12
2022-08-30T06:59:58.303Z,17.19
2022-08-30T07:02:26.606Z,17.25
2022-08-30T07:04:54.557Z,17.29
2022-08-30T07:07:23.011Z,17.26
2022-08-30T07:09:50.803Z,17.19
2022-08-30T07:12:18.532Z,17.23
2022-08-30T07:14:46.891Z,17.22
2022-08-30T07:17:34.019Z,17.19
2022-08-30T07:20:04.419Z,17.22
2022-08-30T07:22:34.860Z,17.27
2022-08-30T07:25:02.805Z,17.35
2022-08-30T07:27:31.315Z,17.48
2022-08-30T07:30:04.952Z,17.58
2022-08-30T07:33:07.690Z,17.68
2022-08-30T07:35:46.243Z,17.74
2022-08-30T07:38:25.996Z,17.82
2022-08-30T07:40:59.154Z,17.83
2022-08-30T07:43:38.104Z,17.78
2022-08-30T07:46:13.925Z,17.84
2022-08-30T07:49:01.836Z,17.90
2022-08-30T07:51:37.716Z,17.99
2022-08-30T07:54:07.023Z,18.03
2022-08-30T07:56:38.257Z,18.15
2022-08-30T07:59:08.659Z,18.23
2022-08-30T08:01:37.298Z,18.33
2022-08-30T08:04:05.846Z,18.39
2022-08-30T08:06:43.861Z,18.41
2022-08-30T08:09:13.876Z,18.48
2022-08-30T08:11:43.218Z,18.54
2022-08-30T08:14:11.723Z,18.60
2022-08-30T08:16:42.699Z,18.70
2022-08-30T08:19:12.263Z,18.70
2022-08-30T08:26:38.760Z,18.80
2022-08-30T08:29:20.575Z,18.78
2022-08-30T08:31:50.861Z,18.66
2022-08-30T08:34:24.700Z,18.52
2022-08-30T08:37:02.996Z,18.53
2022-08-30T08:39:46.360Z,18.67
2022-08-30T08:42:42.231Z,18.89
2022-08-30T08:45:51.782Z,19.09
2022-08-30T08:48:59.554Z,19.25
2022-08-30T08:51:55.215Z,19.29
2022-08-30T08:54:44.704Z,19.20
2022-08-30T08:57:17.719Z,19.20
2022-08-30T08:59:55.089Z,19.33
2022-08-30T09:02:29.540Z,19.40
2022-08-30T09:05:02.580Z,19.36
2022-08-30T09:07:36.785Z,19.27
2022-08-30T09:10:06.196Z,19.20
2022-08-30T09:12:34.115Z,19.24
2022-08-30T09:15:14.690Z,19.24
2022-08-30T09:17:49.959Z,19.20
2022-08-30T09:20:30.889Z,19.21
2022-08-30T09:23:11.585Z,19.14
2022-08-30T09:26:05.365Z,18.99
2022-08-30T09:28:35.385Z,19.02
2022-08-30T09:31:18.597Z,19.03
2022-08-30T09:34:15.816Z,19.10
2022-08-30T09:36:52.174Z,19.25
2022-08-30T09:39:41.506Z,19.37
2022-08-30T09:42:28.723Z,19.56
2022-08-30T09:45:10.392Z,19.76
2022-08-30T09:47:41.697Z,20.06
2022-08-30T09:50:19.722Z,20.16
2022-08-30T09:53:09.891Z,20.23
2022-08-30T09:55:52.657Z,20.24
2022-08-30T09:58:39.194Z,20.27
2022-08-30T10:01:16.730Z,20.32
2022-08-30T10:03:56.626Z,20.37
2022-08-30T10:06:43.084Z,20.30
2022-08-30T10:09:29.196Z,20.19
2022-08-30T10:12:13.949Z,20.13
2022-08-30T10:15:02.223Z,20.15
2022-08-30T10:17:49.057Z,20.18
2022-08-30T10:20:35.676Z,20.21
2022-08-30T10:23:30.354Z,20.22
2022-08-30T10:26:14.176Z,20.17
2022-08-30T10:28:57.374Z,20.06
2022-08-30T10:31:38.378Z,20.10
2022-08-30T10:34:13.755Z,20.12
2022-08-30T10:36:48.405Z,20.20
2022-08-30T10:39:24.609Z,20.17
2022-08-30T10:42:33.830Z,20.18
2022-08-30T10:45:10.322Z,20.26
2022-08-30T10:47:56.818Z,20.37
2022-08-30T10:50:31.847Z,20.42
2022-08-30T10:53:12.913Z,20.38
2022-08-30T10:56:00.266Z,20.47
2022-08-30T10:58:31.431Z,20.60
2022-08-30T11:01:17.872Z,20.68
2022-08-30T11:04:02.101Z,20.65
2022-08-30T11:06:45.903Z,20.72
2022-08-30T11:09:16.537Z,20.69
2022-08-30T11:11:50.297Z,20.75
2022-08-30T11:14:19.940Z,20.79
2022-08-30T11:16:56.364Z,20.59
2022-08-30T11:19:32.250Z,20.60
2022-08-30T11:22:21.599Z,20.78
2022-08-30T11:25:21.158Z,20.75
2022-08-30T11:27:58.760Z,20.62
2022-08-30T11:30:27.058Z,20.51
2022-08-30T11:33:11.244Z,20.30
2022-08-30T11:35:46.030Z,20.27
2022-08-30T11:38:26.199Z,20.44
2022-08-30T11:40:58.552Z,20.51
2022-08-30T11:43:42.115Z,20.49
2022-08-30T11:46:19.033Z,20.45
2022-08-30T11:48:54.475Z,20.44
2022-08-30T11:52:23.540Z,20.50
2022-08-30T11:55:15.352Z,20.61
2022-08-30T11:58:11.489Z,20.58
2022-08-30T12:00:48.985Z,20.54
2022-08-30T12:03:21.936Z,20.41
2022-08-30T12:05:54.664Z,20.22
2022-08-30T12:08:28.172Z,20.12
2022-08-30T12:10:59.783Z,20.10
2022-08-30T12:13:37.760Z,20.06
2022-08-30T12:16:16.286Z,20.07
2022-08-30T12:19:00.887Z,20.06
2022-08-30T12:21:44.873Z,20.00
2022-08-30T12:24:36.555Z,19.94
2022-08-30T12:27:24.211Z,19.92
2022-08-30T12:30:01.918Z,19.87
2022-08-30T12:32:30.452Z,19.75
2022-08-30T12:35:04.502Z,19.70
2022-08-30T12:37:38.518Z,19.69
2022-08-30T12:40:13.115Z,19.69
2022-08-30T12:42:49.601Z,19.71
2022-08-30T12:45:23.744Z,19.71
2022-08-30T12:47:58.452Z,19.79
2022-08-30T12:50:53.551Z,19.96
2022-08-30T12:53:34.389Z,20.19
2022-08-30T12:56:13.316Z,20.22
2022-08-30T12:58:43.395Z,20.07
2022-08-30T13:01:12.978Z,19.91
2022-08-30T13:03:41.844Z,19.76
2022-08-30T13:06:10.023Z,19.63
2022-08-30T13:08:51.656Z,19.61
2022-08-30T13:11:19.914Z,19.60
2022-08-30T13:13:52.356Z,19.61
2022-08-30T13:16:36.602Z,19.56
2022-08-30T13:19:36.980Z,19.56
2022-08-30T13:22:05.561Z,19.48
2022-08-30T13:24:33.163Z,19.44
2022-08-30T13:27:09.564Z,19.44
2022-08-30T13:29:37.209Z,19.42
2022-08-30T13:32:05.051Z,19.41
2022-08-30T13:34:32.969Z,19.42
2022-08-30T13:37:01.757Z,19.43
2022-08-30T13:39:29.741Z,19.39
2022-08-30T13:42:31.814Z,19.29
2022-08-30T13:44:45.032Z,19.16
2022-08-30T13:47:34.955Z,19.05
2022-08-30T13:50:05.117Z,18.93
2022-08-30T13:52:32.882Z,18.78
2022-08-30T13:55:00.513Z,18.67
2022-08-30T14:00:19.948Z,18.53
2022-08-30T14:02:55.003Z,18.45
2022-08-30T14:11:06.413Z,18.56
2022-08-30T14:13:34.150Z,18.57
2022-08-30T14:18:53.983Z,18.61
2022-08-30T14:21:24.738Z,18.68
2022-08-30T14:23:53.927Z,18.71
2022-08-30T14:26:26.753Z,18.62
2022-08-30T14:29:02.478Z,18.59
2022-08-30T14:31:32.660Z,18.58
2022-08-30T14:34:04.212Z,18.52
2022-08-30T14:36:34.589Z,18.46
2022-08-30T14:39:06.233Z,18.41
2022-08-30T14:41:43.656Z,18.38
2022-08-30T14:44:13.895Z,18.37
2022-08-30T14:46:42.658Z,18.39
2022-08-30T14:49:12.539Z,18.41
2022-08-30T14:51:40.930Z,18.41
2022-08-30T14:54:09.593Z,18.39
2022-08-30T14:56:40.213Z,18.44
2022-08-30T14:59:08.980Z,18.49
2022-08-30T15:01:39.190Z,18.54
2022-08-30T15:04:08.577Z,18.61
2022-08-30T15:06:38.429Z,18.69
2022-08-30T15:09:08.819Z,18.77
2022-08-30T15:11:38.097Z,18.85
2022-08-30T15:14:06.733Z,18.86
2022-08-30T15:16:37.131Z,18.88
2022-08-30T15:19:08.574Z,18.88
2022-08-30T15:21:46.141Z,18.88
2022-08-30T15:24:18.176Z,18.88
2022-08-30T15:26:46.096Z,18.87
2022-08-30T15:29:16.369Z,18.77
2022-08-30T15:31:45.485Z,18.69
2022-08-30T15:34:20.069Z,18.63
2022-08-30T15:36:49.125Z,18.59
2022-08-30T15:39:19.257Z,18.56
2022-08-30T15:41:54.664Z,18.52
2022-08-30T15:44:25.533Z,18.48
2022-08-30T15:46:53.390Z,18.44
2022-08-30T15:49:23.886Z,18.46
2022-08-30T15:51:54.202Z,18.50
2022-08-30T15:54:23.875Z,18.54
2022-08-30T15:56:58.894Z,18.55
2022-08-30T15:59:28.922Z,18.55
2022-08-30T16:01:57.858Z,18.55
2022-08-30T16:04:25.824Z,18.53
2022-08-30T16:06:53.777Z,18.52
2022-08-30T16:09:22.747Z,18.50
2022-08-30T16:11:50.734Z,18.49
2022-08-30T16:14:18.408Z,18.45
2022-08-30T16:16:46.449Z,18.40
2022-08-30T16:19:14.495Z,18.33
2022-08-30T16:21:43.276Z,18.32
2022-08-30T16:24:13.469Z,18.30
2022-08-30T16:26:43.240Z,18.29
2022-08-30T16:29:13.134Z,18.27
2022-08-30T16:31:45.728Z,18.27
2022-08-30T16:34:17.950Z,18.26
2022-08-30T16:36:46.249Z,18.19
2022-08-30T16:39:15.284Z,18.12
2022-08-30T16:41:44.796Z,18.07
2022-08-30T16:44:16.038Z,18.05
2022-08-30T16:46:52.835Z,18.00
2022-08-30T16:49:25.552Z,17.94
2022-08-30T16:51:53.884Z,17.92
2022-08-30T16:54:22.870Z,17.92
2022-08-30T16:56:51.225Z,17.85
2022-08-30T16:59:19.198Z,17.79
2022-08-30T17:01:48.202Z,17.77
2022-08-30T17:04:18.391Z,17.72
2022-08-30T17:06:49.565Z,17.66
2022-08-30T17:09:19.173Z,17.60
2022-08-30T17:11:47.450Z,17.56
2022-08-30T17:14:17.829Z,17.54
2022-08-30T17:16:51.001Z,17.52
2022-08-30T17:19:18.701Z,17.51
2022-08-30T17:21:56.118Z,17.48
2022-08-30T17:24:24.649Z,17.45
2022-08-30T17:26:54.406Z,17.45
2022-08-30T17:29:22.076Z,17.43
2022-08-30T17:31:50.876Z,17.40
2022-08-30T17:34:21.254Z,17.37
2022-08-30T17:36:51.234Z,17.35
2022-08-30T17:39:19.083Z,17.31
2022-08-30T17:41:51.539Z,17.29
2022-08-30T17:44:25.832Z,17.29
2022-08-30T17:46:54.820Z,17.29
2022-08-30T17:49:24.032Z,17.28
2022-08-30T17:51:56.724Z,17.27
2022-08-30T17:54:26.735Z,17.24
2022-08-30T17:56:55.957Z,17.20
2022-08-30T17:59:25.747Z,17.18
2022-08-30T18:01:55.272Z,17.18
2022-08-30T18:04:24.903Z,17.17
2022-08-30T18:06:54.194Z,17.17
2022-08-30T18:09:22.890Z,17.15
2022-08-30T18:11:51.291Z,17.12
2022-08-30T18:14:19.423Z,17.09
2022-08-30T18:16:53.345Z,17.06
2022-08-30T18:19:26.822Z,17.02
2022-08-30T18:21:55.329Z,17.01
2022-08-30T18:24:24.129Z,17.00
2022-08-30T18:26:54.543Z,16.97
2022-08-30T18:29:29.157Z,16.94
2022-08-30T18:32:02.137Z,16.92
2022-08-30T18:34:31.261Z,16.93
2022-08-30T18:36:59.007Z,16.93
2022-08-30T18:39:26.757Z,16.91
2022-08-30T18:41:56.981Z,16.91
2022-08-30T18:44:28.928Z,16.88
2022-08-30T18:47:00.347Z,16.86
2022-08-30T18:49:32.444Z,16.84
2022-08-30T18:52:06.752Z,16.84
2022-08-30T18:54:38.999Z,16.84
2022-08-30T18:57:08.422Z,16.83
2022-08-30T18:59:39.315Z,16.80
2022-08-30T19:02:14.832Z,16.77
2022-08-30T19:04:45.115Z,16.74
2022-08-30T19:07:15.453Z,16.72
2022-08-30T19:09:43.756Z,16.72
2022-08-30T19:12:13.314Z,16.72
2022-08-30T19:14:41.155Z,16.73
2022-08-30T19:17:09.076Z,16.73
2022-08-30T19:19:46.499Z,16.71
2022-08-30T19:22:20.758Z,16.69
2022-08-30T19:24:50.224Z,16.67
2022-08-30T19:27:21.569Z,16.65
2022-08-30T19:30:11.395Z,16.62
2022-08-30T19:32:39.294Z,16.59
2022-08-30T19:35:08.479Z,16.57
2022-08-30T19:37:37.519Z,16.55
2022-08-30T19:40:08.400Z,16.53
2022-08-30T19:42:40.638Z,16.50
2022-08-30T19:45:17.740Z,16.47
2022-08-30T19:47:47.134Z,16.48
2022-08-30T19:50:15.830Z,16.48
2022-08-30T19:52:47.314Z,16.47
2022-08-30T19:55:19.187Z,16.45
2022-08-30T19:57:51.877Z,16.43
2022-08-30T20:00:20.453Z,16.41
2022-08-30T20:02:50.593Z,16.39
2022-08-30T20:05:21.304Z,16.36
2022-08-30T20:07:50.844Z,16.36
2022-08-30T20:10:20.505Z,16.35
2022-08-30T20:12:50.232Z,16.32
2022-08-30T20:15:18.759Z,16.31
2022-08-30T20:18:03.260Z,16.31
2022-08-30T20:20:36.261Z,16.31
2022-08-30T20:23:05.773Z,16.29
2022-08-30T20:25:35.958Z,16.26
2022-08-30T20:28:04.839Z,16.22
2022-08-30T20:30:32.463Z,16.18
2022-08-30T20:33:03.738Z,16.16
2022-08-30T20:35:34.082Z,16.14
2022-08-30T20:38:06.273Z,16.13
2022-08-30T20:40:37.666Z,16.12
2022-08-30T20:43:06.950Z,16.12
2022-08-30T20:45:34.885Z,16.11
2022-08-30T20:48:03.357Z,16.10
2022-08-30T20:50:31.451Z,16.08
2022-08-30T20:52:59.485Z,16.06
2022-08-30T20:55:27.162Z,16.03
2022-08-30T20:57:54.770Z,16.00
2022-08-30T21:00:22.808Z,15.99
2022-08-30T21:02:50.695Z,15.98
2022-08-30T21:05:18.557Z,15.97
2022-08-30T21:07:46.742Z,15.95
2022-08-30T21:10:21.190Z,15.90
2022-08-30T21:12:51.873Z,15.77
2022-08-30T21:15:36.762Z,15.68
2022-08-30T21:18:05.822Z,15.62
2022-08-30T21:20:33.539Z,15.57
2022-08-30T21:23:01.306Z,15.53
2022-08-30T21:25:30.869Z,15.47
2022-08-30T21:27:59.000Z,15.42
2022-08-30T21:30:26.641Z,15.35
2022-08-30T21:32:55.080Z,15.30
2022-08-30T21:35:44.754Z,15.23
2022-08-30T21:38:12.536Z,15.19
2022-08-30T21:40:40.289Z,15.16
2022-08-30T21:43:08.241Z,15.12
2022-08-30T21:45:40.013Z,15.11
2022-08-30T21:48:08.592Z,15.09
2022-08-30T21:50:39.861Z,15.04
2022-08-30T21:53:07.626Z,15.01
2022-08-30T21:55:35.367Z,15.00
2022-08-30T21:58:03.583Z,14.99
2022-08-30T22:00:33.394Z,14.98
2022-08-30T22:03:01.126Z,14.97
2022-08-30T22:05:28.881Z,14.95
2022-08-30T22:07:56.766Z,14.94
2022-08-30T22:10:25.154Z,14.94
2022-08-30T22:12:52.781Z,14.92
2022-08-30T22:15:20.626Z,14.91
2022-08-30T22:17:48.362Z,14.89
2022-08-30T22:20:18.696Z,14.89
2022-08-30T22:22:46.548Z,14.92
2022-08-30T22:25:14.186Z,14.94
2022-08-30T22:27:41.911Z,14.92
2022-08-30T22:30:10.291Z,14.96
2022-08-30T22:32:38.106Z,15.00
2022-08-30T22:35:06.460Z,15.02
2022-08-30T22:37:35.062Z,14.99
2022-08-30T22:40:03.327Z,14.97
2022-08-30T22:42:31.036Z,14.93
2022-08-30T22:44:59.068Z,14.92
2022-08-30T22:47:26.879Z,14.92
2022-08-30T22:49:54.538Z,14.94
2022-08-30T22:52:25.497Z,14.95
2022-08-30T22:54:53.445Z,14.95
2022-08-30T22:57:21.130Z,14.96
2022-08-30T22:59:48.792Z,14.98
2022-08-30T23:02:16.601Z,14.99
2022-08-30T23:04:44.316Z,15.01
2022-08-30T23:07:11.946Z,15.03
2022-08-30T23:09:39.778Z,15.04
2022-08-30T23:12:07.628Z,15.05
2022-08-30T23:14:35.249Z,15.03
2022-08-30T23:17:02.935Z,15.00
2022-08-30T23:19:30.585Z,14.99
2022-08-30T23:21:58.253Z,15.01
2022-08-30T23:24:41.860Z,15.01
2022-08-30T23:27:33.281Z,14.99
2022-08-30T23:30:17.027Z,15.00
2022-08-30T23:32:59.689Z,15.03
2022-08-30T23:35:43.272Z,15.04
2022-08-30T23:38:26.913Z,15.07
2022-08-30T23:41:09.465Z,15.10
2022-08-30T23:43:54.116Z,15.10
2022-08-30T23:46:38.439Z,15.11
2022-08-30T23:49:22.089Z,15.16
2022-08-30T23:52:05.906Z,15.18
2022-08-30T23:54:50.279Z,15.21
2022-08-30T23:57:33.910Z,15.26
